Time;durP1;ratioP1;P1;durP2;ratioP2;P2;SDS_P1;SDS_P2;PMS_P1;PMS_P2;Temp;Humidity;BMP_temperature;BMP_pressure;BME280_temperature;BME280_humidity;BME280_pressure;Samples;Min_cycle;Max_cycle;Signal;HPM_P1;HPM_P2
2021/01/31 00:00:25;;;;;;;9.77;7.33;;;4.30;95.10;;;;;;6156466;28;20984;-58
2021/01/31 00:03:33;;;;;;;11.40;6.67;;;4.40;94.50;;;;;;6143525;28;20480;-58
2021/01/31 00:06:35;;;;;;;8.43;7.53;;;4.40;93.80;;;;;;6132612;29;20475;-58
2021/01/31 00:09:38;;;;;;;8.87;6.83;;;4.30;93.70;;;;;;6133823;28;20483;-56
2021/01/31 00:12:40;;;;;;;10.23;7.10;;;4.20;93.50;;;;;;6156328;28;20478;-58
2021/01/31 00:15:44;;;;;;;9.73;6.73;;;4.10;94.00;;;;;;6155987;28;20470;-58
2021/01/31 00:18:47;;;;;;;8.73;6.77;;;4.10;94.00;;;;;;6156023;28;20489;-59
2021/01/31 00:21:50;;;;;;;9.27;7.83;;;4.20;94.10;;;;;;6155575;28;20589;-59
2021/01/31 00:24:54;;;;;;;8.00;6.50;;;4.30;93.90;;;;;;6155716;28;20474;-61
2021/01/31 00:27:56;;;;;;;10.67;7.33;;;4.40;93.70;;;;;;6155848;28;20486;-59
2021/01/31 00:31:02;;;;;;;8.17;7.23;;;4.30;93.60;;;;;;6155641;28;20470;-58
2021/01/31 00:34:05;;;;;;;9.37;6.73;;;4.40;93.60;;;;;;6156201;28;20467;-58
2021/01/31 00:37:07;;;;;;;8.70;6.40;;;4.40;93.90;;;;;;6155647;28;20473;-59
2021/01/31 00:40:10;;;;;;;7.87;6.60;;;4.40;94.20;;;;;;6155407;28;20871;-58
2021/01/31 00:43:14;;;;;;;8.40;6.80;;;4.50;94.10;;;;;;6155717;28;20490;-60
2021/01/31 00:46:16;;;;;;;9.43;6.93;;;4.50;93.80;;;;;;6154959;28;20505;-59
2021/01/31 00:49:19;;;;;;;10.27;7.87;;;4.50;93.90;;;;;;6154982;28;20517;-59
2021/01/31 00:52:22;;;;;;;10.93;7.40;;;4.50;93.90;;;;;;6134281;29;20936;-59
2021/01/31 00:55:25;;;;;;;11.77;7.00;;;4.50;94.00;;;;;;6149453;28;20473;-59
2021/01/31 00:58:27;;;;;;;10.47;8.23;;;4.40;94.40;;;;;;6155409;28;20470;-59
2021/01/31 01:01:29;;;;;;;8.47;7.50;;;4.40;94.40;;;;;;6154065;28;20509;-60
2021/01/31 01:04:34;;;;;;;10.17;8.17;;;4.30;94.60;;;;;;6154976;28;20466;-62
2021/01/31 01:07:36;;;;;;;10.17;7.60;;;4.30;95.10;;;;;;6154921;28;20501;-60
2021/01/31 01:10:41;;;;;;;8.67;7.77;;;4.30;95.30;;;;;;6154818;28;20479;-59
2021/01/31 01:13:43;;;;;;;9.27;7.03;;;4.30;95.70;;;;;;6155027;28;20470;-60
2021/01/31 01:16:45;;;;;;;11.17;7.20;;;4.00;96.30;;;;;;6154666;28;20470;-60
2021/01/31 01:19:48;;;;;;;10.20;7.00;;;4.00;96.70;;;;;;6154859;28;20479;-60
2021/01/31 01:22:52;;;;;;;9.37;8.10;;;3.90;97.40;;;;;;6145005;28;20838;-59
2021/01/31 01:25:54;;;;;;;8.43;7.53;;;3.70;97.90;;;;;;6130564;28;20480;-58
2021/01/31 01:28:56;;;;;;;10.50;7.40;;;3.70;98.30;;;;;;6150682;28;20478;-57
2021/01/31 01:31:59;;;;;;;9.10;7.80;;;3.80;98.70;;;;;;6140113;28;20466;-57
2021/01/31 01:35:02;;;;;;;9.37;7.67;;;3.80;98.90;;;;;;6128257;29;20554;-57
2021/01/31 01:38:04;;;;;;;10.20;8.10;;;3.70;99.30;;;;;;6128153;29;20495;-57
2021/01/31 01:41:07;;;;;;;9.43;7.27;;;3.70;99.80;;;;;;6128017;29;20819;-60
2021/01/31 01:44:09;;;;;;;11.67;8.20;;;3.70;99.90;;;;;;6129599;29;20480;-57
2021/01/31 01:47:17;;;;;;;12.00;8.50;;;3.80;99.90;;;;;;6128419;29;20487;-56
2021/01/31 01:50:29;;;;;;;16.93;9.17;;;3.70;99.90;;;;;;6144021;28;20831;-57
2021/01/31 01:53:32;;;;;;;9.77;8.03;;;3.60;99.90;;;;;;6140418;28;20445;-57
2021/01/31 01:56:39;;;;;;;9.93;8.47;;;3.60;99.90;;;;;;6139031;29;20484;-57
2021/01/31 01:59:42;;;;;;;10.03;8.70;;;3.60;99.90;;;;;;6140723;28;20451;-58
2021/01/31 02:02:53;;;;;;;11.30;8.90;;;3.60;99.90;;;;;;6138206;29;20546;-56
2021/01/31 02:06:02;;;;;;;10.33;8.73;;;3.60;99.90;;;;;;6139062;28;20565;-58
2021/01/31 02:09:06;;;;;;;10.33;9.10;;;3.50;99.90;;;;;;6142745;29;20483;-61
2021/01/31 02:12:09;;;;;;;10.10;8.43;;;3.60;99.90;;;;;;6141583;29;20481;-61
2021/01/31 02:15:14;;;;;;;9.97;8.90;;;3.60;99.90;;;;;;6140969;28;20487;-57
2021/01/31 02:18:29;;;;;;;12.73;10.13;;;3.60;99.90;;;;;;6140666;29;20485;-57
2021/01/31 02:21:54;;;;;;;11.53;9.30;;;3.60;99.90;;;;;;6141436;28;20494;-58
2021/01/31 02:25:29;;;;;;;9.77;8.17;;;3.60;99.90;;;;;;6134042;29;20471;-57
2021/01/31 02:28:58;;;;;;;13.23;10.10;;;3.50;99.90;;;;;;6153522;28;20553;-57
2021/01/31 02:32:26;;;;;;;15.80;9.80;;;3.40;99.90;;;;;;6150950;28;20463;-56
2021/01/31 02:35:31;;;;;;;11.27;8.80;;;3.40;99.90;;;;;;6153736;28;20446;-57
2021/01/31 02:38:41;;;;;;;12.30;9.70;;;3.40;99.90;;;;;;6152995;28;20808;-57
2021/01/31 02:41:47;;;;;;;9.97;8.43;;;3.50;99.90;;;;;;6153310;28;20494;-61
2021/01/31 02:44:58;;;;;;;11.40;8.90;;;3.40;99.90;;;;;;6153156;28;20455;-58
2021/01/31 02:48:07;;;;;;;11.37;9.47;;;3.50;99.90;;;;;;6153306;28;20482;-56
2021/01/31 02:51:14;;;;;;;12.00;9.53;;;3.50;99.90;;;;;;6153371;28;20471;-57
2021/01/31 02:54:20;;;;;;;14.23;11.03;;;3.40;99.90;;;;;;6152664;28;20805;-57
2021/01/31 02:57:29;;;;;;;14.63;9.20;;;3.50;99.90;;;;;;6153310;28;20470;-57
2021/01/31 03:00:38;;;;;;;14.20;9.90;;;3.50;99.90;;;;;;6153037;28;20486;-57
2021/01/31 03:03:43;;;;;;;13.00;9.10;;;3.50;99.90;;;;;;6152726;28;20983;-57
2021/01/31 03:06:53;;;;;;;13.40;10.40;;;3.50;99.90;;;;;;6153084;28;20486;-57
2021/01/31 03:10:01;;;;;;;14.10;10.47;;;3.40;99.90;;;;;;6152386;28;20483;-56
2021/01/31 03:13:07;;;;;;;12.77;9.70;;;3.30;99.90;;;;;;6153081;28;20478;-57
2021/01/31 03:16:14;;;;;;;11.97;9.83;;;3.30;99.90;;;;;;6152584;28;20485;-57
2021/01/31 03:19:23;;;;;;;15.00;11.10;;;3.30;99.90;;;;;;6152823;28;20504;-57
2021/01/31 03:22:36;;;;;;;16.23;11.37;;;3.30;99.90;;;;;;6152368;28;20497;-56
2021/01/31 03:25:41;;;;;;;13.73;10.20;;;3.30;99.90;;;;;;6156337;28;20971;-57
2021/01/31 03:28:43;;;;;;;14.30;11.00;;;3.20;99.90;;;;;;6148878;28;20762;-57
2021/01/31 03:31:52;;;;;;;15.77;11.20;;;3.10;99.90;;;;;;6157371;28;20471;-57
2021/01/31 03:34:58;;;;;;;13.90;11.13;;;3.20;99.90;;;;;;6157593;28;20467;-60
2021/01/31 03:38:10;;;;;;;17.00;11.10;;;3.10;99.90;;;;;;6157422;28;20479;-57
2021/01/31 03:41:17;;;;;;;14.00;9.90;;;3.10;99.90;;;;;;6157070;28;20486;-57
2021/01/31 03:44:20;;;;;;;13.53;10.00;;;3.10;99.90;;;;;;6157292;28;20479;-57
2021/01/31 03:47:29;;;;;;;15.13;11.00;;;3.20;99.90;;;;;;6156956;28;20550;-56
2021/01/31 03:50:32;;;;;;;15.83;12.17;;;3.20;99.90;;;;;;6157273;28;20467;-57
2021/01/31 03:53:36;;;;;;;13.30;10.70;;;3.00;99.90;;;;;;6156721;28;20778;-57
2021/01/31 03:56:43;;;;;;;17.33;12.57;;;3.00;99.90;;;;;;6157159;28;20479;-57
2021/01/31 03:59:51;;;;;;;15.07;11.23;;;3.10;99.90;;;;;;6157258;28;20465;-56
2021/01/31 04:02:57;;;;;;;15.87;11.77;;;3.00;99.90;;;;;;6157104;28;20570;-57
2021/01/31 04:06:02;;;;;;;14.43;11.80;;;3.00;99.90;;;;;;6156878;28;20600;-57
2021/01/31 04:09:08;;;;;;;11.90;10.57;;;3.10;99.90;;;;;;6156413;28;20934;-57
2021/01/31 04:12:13;;;;;;;17.33;12.77;;;3.10;99.90;;;;;;6156503;28;20829;-57
2021/01/31 04:15:28;;;;;;;17.87;11.87;;;3.10;99.90;;;;;;6156686;28;20565;-58
2021/01/31 04:18:31;;;;;;;16.27;11.40;;;3.10;99.90;;;;;;6156594;28;20471;-57
2021/01/31 04:21:33;;;;;;;15.00;11.00;;;3.10;99.90;;;;;;6156329;28;20466;-57
2021/01/31 04:24:36;;;;;;;17.93;12.50;;;3.10;99.90;;;;;;6156279;28;20475;-56
2021/01/31 04:27:39;;;;;;;16.37;11.23;;;3.20;99.90;;;;;;6156594;28;20493;-57
2021/01/31 04:30:43;;;;;;;16.83;12.07;;;3.10;99.90;;;;;;6151480;28;20815;-56
2021/01/31 04:33:46;;;;;;;13.13;10.40;;;3.10;99.90;;;;;;6155879;28;20967;-56
2021/01/31 04:36:48;;;;;;;15.87;12.30;;;3.10;99.90;;;;;;6155911;28;20485;-56
2021/01/31 04:39:51;;;;;;;16.20;12.67;;;3.20;99.90;;;;;;6155582;28;20619;-57
2021/01/31 04:42:53;;;;;;;17.07;12.30;;;3.20;99.90;;;;;;6155920;28;20478;-56
2021/01/31 04:45:58;;;;;;;17.13;13.00;;;3.20;99.90;;;;;;6156030;28;20482;-57
2021/01/31 04:49:07;;;;;;;14.90;11.43;;;3.20;99.90;;;;;;6155380;28;20483;-56
2021/01/31 04:52:33;;;;;;;13.77;11.80;;;3.20;99.90;;;;;;6156055;28;20974;-56
2021/01/31 04:56:10;;;;;;;15.73;11.67;;;3.20;99.90;;;;;;6155524;28;20475;-57
2021/01/31 04:59:24;;;;;;;14.40;10.83;;;3.20;99.90;;;;;;6155345;28;21002;-56
2021/01/31 05:02:32;;;;;;;15.50;11.53;;;3.20;99.90;;;;;;6155065;28;20503;-58
2021/01/31 05:05:40;;;;;;;18.43;13.47;;;3.20;99.90;;;;;;6155348;28;20819;-56
2021/01/31 05:08:46;;;;;;;15.10;13.40;;;3.10;99.90;;;;;;6155138;28;20471;-56
2021/01/31 05:11:56;;;;;;;14.97;11.03;;;3.10;99.90;;;;;;6155219;28;20475;-56
2021/01/31 05:15:11;;;;;;;18.30;13.83;;;3.10;99.90;;;;;;6154985;28;20973;-56
2021/01/31 05:18:16;;;;;;;20.43;13.17;;;3.10;99.90;;;;;;6155259;28;20478;-56
2021/01/31 05:21:21;;;;;;;15.97;11.87;;;3.20;99.90;;;;;;6155506;28;20479;-57
2021/01/31 05:24:25;;;;;;;18.80;13.03;;;3.20;99.90;;;;;;6154388;28;20828;-56
2021/01/31 05:27:31;;;;;;;18.77;12.97;;;3.30;99.90;;;;;;6155091;28;20474;-57
2021/01/31 05:30:41;;;;;;;17.10;13.27;;;3.30;99.90;;;;;;6154930;28;20562;-57
2021/01/31 05:33:54;;;;;;;16.23;12.90;;;3.40;99.90;;;;;;6154740;28;20482;-57
2021/01/31 05:37:01;;;;;;;14.17;10.73;;;3.40;99.90;;;;;;6146504;28;20471;-56
2021/01/31 05:40:07;;;;;;;15.00;9.67;;;3.50;99.90;;;;;;6154470;28;20489;-57
2021/01/31 05:43:15;;;;;;;11.23;8.80;;;3.40;99.90;;;;;;6154402;28;20787;-57
2021/01/31 05:46:17;;;;;;;11.17;7.60;;;3.40;99.90;;;;;;6153893;28;20517;-57
2021/01/31 05:49:36;;;;;;;8.47;6.10;;;3.40;99.90;;;;;;6154590;28;20467;-56
2021/01/31 05:52:38;;;;;;;9.63;7.03;;;3.50;99.90;;;;;;6154454;28;20490;-56
2021/01/31 05:55:40;;;;;;;9.33;6.80;;;3.40;99.90;;;;;;6154222;28;20486;-57
2021/01/31 05:58:43;;;;;;;9.10;6.53;;;3.40;99.90;;;;;;6154379;28;20494;-57
2021/01/31 06:01:55;;;;;;;7.50;6.00;;;3.40;99.90;;;;;;6153861;28;20474;-57
2021/01/31 06:05:14;;;;;;;11.53;7.90;;;3.30;99.90;;;;;;6154315;28;20475;-57
2021/01/31 06:08:28;;;;;;;8.20;6.27;;;3.30;99.90;;;;;;6153064;28;20483;-57
2021/01/31 06:11:32;;;;;;;9.90;6.80;;;3.30;99.90;;;;;;6153710;28;20444;-57
2021/01/31 06:14:38;;;;;;;8.63;7.07;;;3.30;99.90;;;;;;6154147;28;20450;-57
2021/01/31 06:17:41;;;;;;;7.30;6.20;;;3.30;99.90;;;;;;6154485;28;20447;-57
2021/01/31 06:20:44;;;;;;;8.20;6.80;;;3.30;99.90;;;;;;6153502;28;20535;-57
2021/01/31 06:23:49;;;;;;;11.07;7.20;;;3.30;99.90;;;;;;6153068;28;20823;-57
2021/01/31 06:26:52;;;;;;;8.50;6.00;;;3.30;99.90;;;;;;6153426;28;20486;-57
2021/01/31 06:30:22;;;;;;;10.40;7.30;;;3.30;99.90;;;;;;6153643;28;20475;-57
2021/01/31 06:33:24;;;;;;;9.97;7.10;;;3.20;99.90;;;;;;6153756;28;20471;-56
2021/01/31 06:36:40;;;;;;;11.40;7.93;;;3.20;99.90;;;;;;6153551;28;20475;-56
2021/01/31 06:39:53;;;;;;;9.90;7.67;;;3.20;99.90;;;;;;6148922;28;20988;-56
2021/01/31 06:43:02;;;;;;;11.37;7.20;;;3.20;99.90;;;;;;6153234;28;20830;-56
2021/01/31 06:46:11;;;;;;;13.53;7.67;;;3.20;99.90;;;;;;6153207;28;20486;-56
2021/01/31 06:49:27;;;;;;;11.37;7.67;;;3.20;99.90;;;;;;6153282;28;20537;-56
2021/01/31 06:52:45;;;;;;;8.50;7.57;;;3.30;99.90;;;;;;6153018;28;20867;-57
2021/01/31 06:56:29;;;;;;;9.27;7.23;;;3.30;99.90;;;;;;6153255;28;20479;-56
2021/01/31 06:59:40;;;;;;;9.60;8.70;;;3.30;99.90;;;;;;6140099;28;20467;-57
2021/01/31 07:03:10;;;;;;;9.30;7.20;;;3.30;99.90;;;;;;6152942;28;20561;-56
2021/01/31 07:06:26;;;;;;;13.27;8.60;;;3.20;99.90;;;;;;6152754;28;20820;-57
2021/01/31 07:09:47;;;;;;;9.17;8.23;;;3.20;99.90;;;;;;6152988;28;20587;-57
2021/01/31 07:13:03;;;;;;;9.40;7.57;;;3.30;99.90;;;;;;6152865;28;20485;-56
2021/01/31 07:16:15;;;;;;;11.17;8.43;;;3.40;99.90;;;;;;6152870;28;20489;-57
2021/01/31 07:19:21;;;;;;;9.30;7.47;;;3.30;99.90;;;;;;6152917;28;20562;-57
2021/01/31 07:22:36;;;;;;;12.00;8.20;;;3.40;99.90;;;;;;6152487;28;20491;-57
2021/01/31 07:25:41;;;;;;;10.30;7.80;;;3.50;99.90;;;;;;6152508;28;20486;-56
2021/01/31 07:28:44;;;;;;;10.00;7.00;;;3.50;99.90;;;;;;6152553;28;20494;-56
2021/01/31 07:31:49;;;;;;;11.33;7.30;;;3.60;99.90;;;;;;6153153;28;20904;-56
2021/01/31 07:34:58;;;;;;;8.43;6.80;;;3.70;99.80;;;;;;6152442;28;20988;-56
2021/01/31 07:38:09;;;;;;;11.17;8.53;;;3.70;99.90;;;;;;6152856;28;20475;-56
2021/01/31 07:41:14;;;;;;;7.87;5.67;;;3.80;99.50;;;;;;6152377;28;20487;-56
2021/01/31 07:44:20;;;;;;;8.10;6.47;;;3.90;99.20;;;;;;6152181;28;20483;-56
2021/01/31 07:47:23;;;;;;;10.40;6.90;;;3.90;99.10;;;;;;6152303;28;20475;-56
2021/01/31 07:50:40;;;;;;;9.30;7.70;;;4.00;99.10;;;;;;6152171;28;20479;-57
2021/01/31 07:53:43;;;;;;;10.83;7.63;;;4.10;98.80;;;;;;6152054;28;20462;-57
2021/01/31 07:56:48;;;;;;;12.17;7.80;;;4.10;98.70;;;;;;6152618;28;20458;-57
2021/01/31 07:59:51;;;;;;;9.57;7.40;;;4.20;98.30;;;;;;6152187;28;20578;-57
2021/01/31 08:02:57;;;;;;;8.97;7.17;;;4.30;98.20;;;;;;6147025;29;20499;-58
2021/01/31 08:06:04;;;;;;;7.70;6.37;;;4.40;97.80;;;;;;6139603;28;20478;-57
2021/01/31 08:09:06;;;;;;;10.10;7.23;;;4.50;97.80;;;;;;6128741;29;20471;-60
2021/01/31 08:12:11;;;;;;;12.30;8.70;;;4.60;97.50;;;;;;6132567;29;20983;-57
2021/01/31 08:15:37;;;;;;;8.33;7.53;;;4.70;97.40;;;;;;6132963;29;20471;-56
2021/01/31 08:19:08;;;;;;;6.70;5.60;;;4.90;97.10;;;;;;6132953;29;20484;-56
2021/01/31 08:22:35;;;;;;;9.17;6.20;;;4.90;96.00;;;;;;6132431;29;20868;-57
2021/01/31 08:25:55;;;;;;;7.43;6.07;;;4.80;96.40;;;;;;6132379;29;20566;-57
2021/01/31 08:28:57;;;;;;;7.97;6.50;;;4.60;95.70;;;;;;6132752;29;20475;-59
2021/01/31 08:32:20;;;;;;;7.80;5.10;;;4.50;96.40;;;;;;6132725;29;20498;-61
2021/01/31 08:35:24;;;;;;;6.20;4.83;;;4.50;96.40;;;;;;6127016;29;20818;-65
2021/01/31 08:38:40;;;;;;;5.80;5.07;;;4.50;95.70;;;;;;6132126;29;20471;-60
2021/01/31 08:41:43;;;;;;;7.63;5.40;;;4.50;95.90;;;;;;6132291;28;20444;-60
2021/01/31 08:44:56;;;;;;;9.63;8.30;;;4.40;95.70;;;;;;6132327;29;20486;-60
2021/01/31 08:47:59;;;;;;;8.20;6.23;;;4.60;95.90;;;;;;6132601;29;20478;-61
2021/01/31 08:51:06;;;;;;;7.33;6.00;;;4.60;96.20;;;;;;6132271;29;20478;-60
2021/01/31 08:54:12;;;;;;;6.03;4.53;;;4.60;96.10;;;;;;6131777;28;20971;-62
2021/01/31 08:57:16;;;;;;;6.80;5.07;;;4.90;96.50;;;;;;6132119;29;20479;-61
2021/01/31 09:00:26;;;;;;;7.70;5.60;;;5.10;96.10;;;;;;6131662;29;20820;-60
2021/01/31 09:03:29;;;;;;;6.50;5.33;;;5.40;95.40;;;;;;6132623;29;20476;-61
2021/01/31 09:06:36;;;;;;;4.27;3.93;;;5.60;94.60;;;;;;6131717;29;20971;-60
2021/01/31 09:09:47;;;;;;;5.73;4.20;;;5.70;94.00;;;;;;6131595;29;20930;-60
2021/01/31 09:12:49;;;;;;;5.10;4.07;;;5.60;94.00;;;;;;6131682;29;20467;-61
2021/01/31 09:16:09;;;;;;;5.00;4.00;;;5.60;93.70;;;;;;6131655;29;20487;-61
2021/01/31 09:19:18;;;;;;;6.30;4.83;;;5.60;94.20;;;;;;6131677;29;20557;-61
2021/01/31 09:22:22;;;;;;;6.97;4.77;;;5.70;94.10;;;;;;6142008;29;20487;-61
2021/01/31 09:25:27;;;;;;;5.40;4.73;;;5.70;93.80;;;;;;6154422;28;20471;-62
2021/01/31 09:28:30;;;;;;;7.63;4.57;;;5.80;93.70;;;;;;6154794;28;21087;-61
2021/01/31 09:31:33;;;;;;;5.20;3.90;;;6.00;93.70;;;;;;6153783;28;20475;-60
2021/01/31 09:34:35;;;;;;;5.07;3.90;;;6.40;93.20;;;;;;6152723;28;20496;-61
2021/01/31 09:37:41;;;;;;;6.73;4.60;;;6.60;92.20;;;;;;6149421;28;20477;-62
2021/01/31 09:40:45;;;;;;;5.27;4.70;;;6.80;91.80;;;;;;6152633;28;20502;-62
2021/01/31 09:43:52;;;;;;;5.07;4.40;;;7.00;91.90;;;;;;6152229;28;20483;-62
2021/01/31 09:46:55;;;;;;;6.77;5.13;;;7.10;91.40;;;;;;6152888;28;20475;-61
2021/01/31 09:50:01;;;;;;;6.03;4.90;;;7.10;91.40;;;;;;6154459;28;20805;-60
2021/01/31 09:53:04;;;;;;;5.10;3.50;;;7.30;90.80;;;;;;6150619;28;20560;-61
2021/01/31 09:56:09;;;;;;;4.73;3.60;;;7.20;89.30;;;;;;6154053;28;20829;-63
2021/01/31 09:59:19;;;;;;;6.00;4.20;;;7.30;89.10;;;;;;6154535;28;20613;-61
2021/01/31 10:02:23;;;;;;;4.37;3.97;;;7.30;87.00;;;;;;6154015;28;20558;-61
2021/01/31 10:05:25;;;;;;;5.97;4.83;;;7.30;88.40;;;;;;6154320;28;20818;-61
2021/01/31 10:08:28;;;;;;;6.53;4.70;;;7.30;89.40;;;;;;6154164;28;20558;-62
2021/01/31 10:11:38;;;;;;;4.83;3.73;;;7.30;88.10;;;;;;6153787;28;20485;-61
2021/01/31 10:14:44;;;;;;;5.43;3.87;;;7.10;87.70;;;;;;6153722;28;20471;-61
2021/01/31 10:17:46;;;;;;;4.87;4.13;;;7.00;88.70;;;;;;6154172;28;20423;-62
2021/01/31 10:20:49;;;;;;;3.80;3.50;;;7.00;90.00;;;;;;6153756;28;20481;-63
2021/01/31 10:24:01;;;;;;;4.13;3.23;;;6.90;88.70;;;;;;6153081;28;20518;-62
2021/01/31 10:27:24;;;;;;;3.60;3.30;;;6.80;88.70;;;;;;6153545;28;20481;-61
2021/01/31 10:30:40;;;;;;;3.50;3.13;;;6.70;88.50;;;;;;6153446;28;20494;-61
2021/01/31 10:33:46;;;;;;;4.80;2.90;;;6.70;87.50;;;;;;6153080;28;20471;-58
2021/01/31 10:36:49;;;;;;;3.60;2.97;;;6.70;88.80;;;;;;6151525;28;20501;-61
2021/01/31 10:39:51;;;;;;;5.90;3.87;;;6.60;88.90;;;;;;6152578;28;20965;-62
2021/01/31 10:42:54;;;;;;;4.67;4.13;;;6.60;89.20;;;;;;6152913;28;20486;-61
2021/01/31 10:45:57;;;;;;;4.23;3.33;;;6.70;89.40;;;;;;6149860;28;20482;-61
2021/01/31 10:49:00;;;;;;;3.33;3.03;;;6.70;88.00;;;;;;6152108;28;20463;-60
2021/01/31 10:52:03;;;;;;;2.93;2.63;;;6.70;86.50;;;;;;6151122;28;20475;-60
2021/01/31 10:55:06;;;;;;;2.63;2.43;;;6.80;86.20;;;;;;6153123;28;20478;-62
2021/01/31 10:58:09;;;;;;;5.33;3.30;;;6.90;84.40;;;;;;6152994;28;20583;-63
2021/01/31 11:01:11;;;;;;;3.53;2.80;;;7.00;85.30;;;;;;6153529;28;20638;-61
2021/01/31 11:04:17;;;;;;;3.60;2.60;;;7.10;84.30;;;;;;6152168;28;20547;-62
2021/01/31 11:07:20;;;;;;;5.33;4.03;;;7.20;83.20;;;;;;6151661;28;20477;-62
2021/01/31 11:10:22;;;;;;;2.90;2.63;;;7.10;82.50;;;;;;6149578;29;20482;-61
2021/01/31 11:13:26;;;;;;;3.93;3.20;;;7.00;81.70;;;;;;6150490;28;20859;-60
2021/01/31 11:16:30;;;;;;;6.07;3.47;;;6.80;82.50;;;;;;6150590;28;20479;-61
2021/01/31 11:19:32;;;;;;;4.10;2.90;;;6.60;84.00;;;;;;6149285;28;20483;-61
2021/01/31 11:22:35;;;;;;;2.87;2.53;;;6.40;83.70;;;;;;6150752;28;20487;-61
2021/01/31 11:25:37;;;;;;;2.50;1.83;;;6.40;83.80;;;;;;6152531;28;20820;-60
2021/01/31 11:28:41;;;;;;;4.50;2.90;;;6.40;83.80;;;;;;6152591;28;20482;-60
2021/01/31 11:31:43;;;;;;;3.77;3.03;;;6.50;85.00;;;;;;6152804;28;20475;-61
2021/01/31 11:34:47;;;;;;;2.30;2.10;;;6.60;84.50;;;;;;6152911;28;20482;-61
2021/01/31 11:37:50;;;;;;;4.33;2.23;;;6.80;84.50;;;;;;6151491;28;20467;-61
2021/01/31 11:40:53;;;;;;;2.90;2.70;;;7.00;83.00;;;;;;6152556;28;20984;-62
2021/01/31 11:43:56;;;;;;;3.97;2.60;;;7.00;83.70;;;;;;6152554;28;20813;-61
2021/01/31 11:46:58;;;;;;;2.60;2.40;;;7.10;82.20;;;;;;6157612;28;20485;-61
2021/01/31 11:50:00;;;;;;;3.03;2.43;;;7.00;82.20;;;;;;6157399;28;20501;-61
2021/01/31 11:53:03;;;;;;;3.37;2.33;;;6.90;82.20;;;;;;6157761;28;20481;-62
2021/01/31 11:56:05;;;;;;;2.83;2.63;;;7.00;83.00;;;;;;6156700;28;20478;-62
2021/01/31 11:59:09;;;;;;;2.40;2.20;;;6.90;83.00;;;;;;6156635;28;20489;-61
2021/01/31 12:02:11;;;;;;;2.43;2.23;;;7.00;83.00;;;;;;6148247;28;20801;-61
2021/01/31 12:05:16;;;;;;;2.20;2.00;;;7.00;81.60;;;;;;6156350;28;21005;-61
2021/01/31 12:08:19;;;;;;;5.10;2.47;;;6.80;79.70;;;;;;6156977;28;20490;-61
2021/01/31 12:11:21;;;;;;;1.97;1.80;;;7.00;80.90;;;;;;6156554;28;20471;-61
2021/01/31 12:14:24;;;;;;;2.50;2.30;;;7.10;80.10;;;;;;6156447;28;20478;-61
2021/01/31 12:17:26;;;;;;;2.80;2.50;;;7.40;80.60;;;;;;6157064;28;20528;-62
2021/01/31 12:20:28;;;;;;;2.00;1.80;;;7.60;78.50;;;;;;6156091;28;20486;-61
2021/01/31 12:23:31;;;;;;;3.63;2.70;;;8.20;78.00;;;;;;6155596;28;20955;-60
2021/01/31 12:26:34;;;;;;;3.70;2.07;;;8.60;76.10;;;;;;6156149;28;20788;-60
2021/01/31 12:29:39;;;;;;;2.83;2.60;;;8.70;74.50;;;;;;6156501;28;20481;-61
2021/01/31 12:32:41;;;;;;;2.10;1.90;;;8.70;74.90;;;;;;6157087;28;20436;-61
2021/01/31 12:35:44;;;;;;;4.33;2.07;;;8.70;74.70;;;;;;6155977;28;20739;-61
2021/01/31 12:38:46;;;;;;;2.50;2.30;;;8.60;74.20;;;;;;6155834;28;20462;-61
2021/01/31 12:41:48;;;;;;;4.90;2.17;;;8.40;74.70;;;;;;6156249;28;20450;-61
2021/01/31 12:44:51;;;;;;;3.90;2.60;;;8.20;74.70;;;;;;6155811;28;20486;-61
2021/01/31 12:47:53;;;;;;;3.07;2.77;;;8.10;73.90;;;;;;6155857;28;20489;-61
2021/01/31 12:50:55;;;;;;;3.13;2.83;;;7.90;74.90;;;;;;6155726;28;20467;-61
2021/01/31 12:54:00;;;;;;;2.53;2.37;;;7.80;76.60;;;;;;6155790;28;20471;-61
2021/01/31 12:57:03;;;;;;;2.67;2.23;;;7.60;76.20;;;;;;6154422;28;20470;-61
2021/01/31 13:00:09;;;;;;;2.87;2.30;;;7.40;75.60;;;;;;6155140;28;20918;-61
2021/01/31 13:03:11;;;;;;;2.60;1.90;;;7.20;76.90;;;;;;6151368;28;20479;-61
2021/01/31 13:06:14;;;;;;;1.97;1.87;;;6.90;77.10;;;;;;6155763;28;20481;-61
2021/01/31 13:09:16;;;;;;;2.30;2.00;;;6.80;78.20;;;;;;6155200;28;20561;-62
2021/01/31 13:12:18;;;;;;;2.53;2.13;;;6.80;78.90;;;;;;6155446;28;20475;-62
2021/01/31 13:15:25;;;;;;;2.60;2.40;;;6.70;79.00;;;;;;6155122;28;20470;-61
2021/01/31 13:18:29;;;;;;;2.40;2.20;;;6.60;78.70;;;;;;6155497;28;20487;-62
2021/01/31 13:21:32;;;;;;;2.63;2.40;;;6.40;77.80;;;;;;6154923;28;20503;-61
2021/01/31 13:24:34;;;;;;;2.33;2.13;;;6.30;80.40;;;;;;6154947;28;20478;-61
2021/01/31 13:27:36;;;;;;;2.20;1.70;;;6.30;80.10;;;;;;6155058;28;20554;-61
2021/01/31 13:30:41;;;;;;;4.67;2.50;;;6.40;80.60;;;;;;6154728;28;20529;-61
2021/01/31 13:33:44;;;;;;;2.50;2.30;;;6.20;79.60;;;;;;6155190;28;20778;-62
2021/01/31 13:36:46;;;;;;;3.40;2.70;;;6.30;79.70;;;;;;6154643;28;20558;-60
2021/01/31 13:39:49;;;;;;;4.07;2.90;;;6.30;79.40;;;;;;6154554;28;20879;-61
2021/01/31 13:42:51;;;;;;;3.13;2.43;;;6.30;79.50;;;;;;6154657;28;20963;-60
2021/01/31 13:45:54;;;;;;;3.30;2.80;;;6.30;80.70;;;;;;6154492;28;20485;-61
2021/01/31 13:48:57;;;;;;;3.50;1.97;;;6.40;82.00;;;;;;6154249;28;20979;-62
2021/01/31 13:51:59;;;;;;;2.20;2.00;;;6.40;80.20;;;;;;6154079;28;20486;-63
2021/01/31 13:55:01;;;;;;;2.77;2.50;;;6.50;79.60;;;;;;6154273;28;20802;-61
2021/01/31 13:58:04;;;;;;;2.30;2.00;;;6.50;78.40;;;;;;6154623;28;20463;-61
2021/01/31 14:01:07;;;;;;;1.90;1.70;;;6.60;78.90;;;;;;6154341;28;20478;-61
2021/01/31 14:04:09;;;;;;;2.30;2.10;;;6.50;79.10;;;;;;6154001;28;20493;-62
2021/01/31 14:07:12;;;;;;;1.97;1.87;;;6.50;79.70;;;;;;6149955;28;20495;-63
2021/01/31 14:10:16;;;;;;;2.07;1.87;;;6.40;78.70;;;;;;6153416;28;20478;-61
2021/01/31 14:13:19;;;;;;;3.00;2.00;;;6.20;79.50;;;;;;6154591;28;20472;-61
2021/01/31 14:16:23;;;;;;;2.13;1.80;;;6.10;78.90;;;;;;6153735;28;20919;-62
2021/01/31 14:19:26;;;;;;;2.03;1.80;;;5.90;79.70;;;;;;6153562;28;20520;-62
2021/01/31 14:22:28;;;;;;;3.00;2.67;;;5.80;80.50;;;;;;6153514;28;20492;-62
2021/01/31 14:25:30;;;;;;;2.80;2.60;;;5.70;81.20;;;;;;6153376;28;20501;-61
2021/01/31 14:28:33;;;;;;;2.47;2.30;;;5.40;81.40;;;;;;6153801;28;20485;-61
2021/01/31 14:31:38;;;;;;;2.60;2.40;;;5.30;81.90;;;;;;6153813;28;20478;-61
2021/01/31 14:34:59;;;;;;;2.27;2.07;;;5.10;82.10;;;;;;6153556;28;20959;-62
2021/01/31 14:38:02;;;;;;;2.40;2.10;;;5.00;82.70;;;;;;6153644;28;20478;-61
2021/01/31 14:41:06;;;;;;;3.90;2.83;;;4.90;83.40;;;;;;6152848;28;20509;-62
2021/01/31 14:44:09;;;;;;;2.17;1.97;;;4.90;83.60;;;;;;6152842;28;20946;-62
2021/01/31 14:47:12;;;;;;;2.70;2.50;;;4.90;83.80;;;;;;6153008;28;20486;-62
2021/01/31 14:50:17;;;;;;;3.63;2.70;;;4.90;84.10;;;;;;6153002;28;20641;-61
2021/01/31 14:53:21;;;;;;;3.17;2.87;;;4.90;85.00;;;;;;6153724;28;20903;-61
2021/01/31 14:56:23;;;;;;;4.00;2.90;;;4.90;85.60;;;;;;6153023;28;20806;-60
2021/01/31 14:59:25;;;;;;;2.90;2.70;;;4.80;85.50;;;;;;6152964;28;20486;-61
2021/01/31 15:02:28;;;;;;;2.90;2.50;;;4.80;85.20;;;;;;6153005;28;20881;-63
2021/01/31 15:05:31;;;;;;;5.40;2.90;;;4.80;85.40;;;;;;6153517;28;20483;-60
2021/01/31 15:08:34;;;;;;;3.20;2.90;;;4.70;85.90;;;;;;6152306;28;20481;-62
2021/01/31 15:11:36;;;;;;;5.43;2.90;;;4.70;86.40;;;;;;6153238;28;20467;-61
2021/01/31 15:14:38;;;;;;;4.10;3.47;;;4.70;86.50;;;;;;6153132;28;20450;-61
2021/01/31 15:17:42;;;;;;;3.77;3.27;;;4.70;86.80;;;;;;6153173;28;20439;-61
2021/01/31 15:20:44;;;;;;;3.63;2.90;;;4.70;86.80;;;;;;6152118;28;20471;-61
2021/01/31 15:23:46;;;;;;;4.17;2.90;;;4.80;87.70;;;;;;6152212;28;20486;-60
2021/01/31 15:26:48;;;;;;;4.30;3.03;;;4.80;87.50;;;;;;6152624;28;20457;-61
2021/01/31 15:29:51;;;;;;;3.90;3.60;;;4.70;87.20;;;;;;6152928;28;20478;-61
2021/01/31 15:32:54;;;;;;;8.47;4.70;;;4.70;87.80;;;;;;6152597;28;20558;-61
2021/01/31 15:35:56;;;;;;;5.40;3.10;;;4.60;88.50;;;;;;6152556;28;20463;-62
2021/01/31 15:38:58;;;;;;;4.60;3.93;;;4.70;88.50;;;;;;6152196;28;20848;-61
2021/01/31 15:42:00;;;;;;;4.10;2.97;;;4.70;88.20;;;;;;6152850;28;20496;-60
2021/01/31 15:45:04;;;;;;;5.10;3.43;;;4.60;88.10;;;;;;6152297;28;20466;-62
2021/01/31 15:48:11;;;;;;;5.40;3.87;;;4.50;88.80;;;;;;6152798;28;20466;-60
2021/01/31 15:51:14;;;;;;;5.70;4.17;;;4.50;89.30;;;;;;6152289;28;20923;-60
2021/01/31 15:54:16;;;;;;;4.97;4.43;;;4.50;89.30;;;;;;6152110;28;20549;-60
2021/01/31 15:57:19;;;;;;;5.60;3.87;;;4.40;90.00;;;;;;6152332;28;20489;-60
2021/01/31 16:00:26;;;;;;;8.23;5.33;;;4.30;90.40;;;;;;6152652;28;20489;-60
2021/01/31 16:03:29;;;;;;;8.87;4.83;;;4.20;90.80;;;;;;6152351;28;20482;-60
2021/01/31 16:06:32;;;;;;;6.17;4.73;;;4.20;91.40;;;;;;6152474;28;20613;-62
2021/01/31 16:09:34;;;;;;;8.23;4.50;;;4.10;92.00;;;;;;6152709;28;20497;-62
2021/01/31 16:12:37;;;;;;;6.80;4.67;;;4.10;92.50;;;;;;6152507;28;20482;-61
2021/01/31 16:15:41;;;;;;;5.80;5.30;;;3.80;93.30;;;;;;6152148;28;20585;-61